Terminal Aerodrome Forecast
Issued by NWS

Home | Current Version | Previous Version | Text Only | Print | Product List | Glossary On
Versions: 1 2 3 4 5 6 7 8 9 10 11 12 13 14 15 16 17 18 19 20 21 22 23
000
FTUS43 KLSX 211133
TAFCPS
TAF
KCPS 211133Z 2112/2212 00000KT 3SM -SHRA BR OVC025
      TEMPO 2112/2116 1SM -SHRA BR BKN008
     FM211900 04004KT P6SM VCSH BKN035
     FM212100 02004KT P6SM BKN035
     FM220800 00000KT 3SM BR SCT100=

USA.gov is the U.S. government's official web portal to all federal, state and local government web resources and services.